sensor_id;sensor_type;location;lat;lon;timestamp;pressure;altitude;pressure_sealevel;temperature;humidity
54248;BME280;40161;39.768;2.722;2023-04-28T05:28:51;101311.53;;;15.96;74.46
54248;BME280;40161;39.768;2.722;2023-04-28T05:34:38;101316.72;;;16.01;73.95
54248;BME280;40161;39.768;2.722;2023-04-28T05:37:04;101341.63;;;16.01;73.58
54248;BME280;40161;39.768;2.722;2023-04-28T05:39:30;101318.22;;;15.84;73.76
54248;BME280;40161;39.768;2.722;2023-04-28T05:41:55;101343.13;;;15.84;75.31
54248;BME280;40161;39.768;2.722;2023-04-28T05:44:23;101319.78;;;15.85;75.49
54248;BME280;40161;39.768;2.722;2023-04-28T05:46:48;101324.94;;;15.86;74.70
54248;BME280;40161;39.768;2.722;2023-04-28T15:10:20;101139.28;;;25.65;41.84
54248;BME280;40161;39.768;2.722;2023-04-28T15:12:47;101145.81;;;25.62;41.90
54248;BME280;40161;39.768;2.722;2023-04-28T15:15:13;101150.31;;;25.59;41.86
54248;BME280;40161;39.768;2.722;2023-04-28T15:17:39;101148.63;;;25.62;42.10
54248;BME280;40161;39.768;2.722;2023-04-28T15:20:06;101162.38;;;25.69;41.52
54248;BME280;40161;39.768;2.722;2023-04-28T15:22:32;101155.03;;;25.62;42.59
54248;BME280;40161;39.768;2.722;2023-04-28T15:24:58;101139.22;;;25.55;42.28
54248;BME280;40161;39.768;2.722;2023-04-28T15:27:24;101144.38;;;25.57;41.13
54248;BME280;40161;39.768;2.722;2023-04-28T15:29:49;101147.50;;;25.59;43.16
54248;BME280;40161;39.768;2.722;2023-04-28T15:32:15;101145.09;;;25.48;42.29
54248;BME280;40161;39.768;2.722;2023-04-28T15:34:40;101131.81;;;25.40;42.09
54248;BME280;40161;39.768;2.722;2023-04-28T15:37:38;101131.41;;;25.50;42.74
54248;BME280;40161;39.768;2.722;2023-04-28T15:40:06;101114.53;;;25.50;42.02
54248;BME280;40161;39.768;2.722;2023-04-28T15:42:33;101122.81;;;25.54;41.38
54248;BME280;40161;39.768;2.722;2023-04-28T15:44:59;101129.53;;;25.56;41.77
54248;BME280;40161;39.768;2.722;2023-04-28T15:47:26;101107.16;;;25.44;41.49
54248;BME280;40161;39.768;2.722;2023-04-28T15:49:53;101085.31;;;25.48;41.75
54248;BME280;40161;39.768;2.722;2023-04-28T15:52:19;101051.41;;;25.33;41.26
54248;BME280;40161;39.768;2.722;2023-04-28T15:54:46;101059.53;;;25.40;41.53
54248;BME280;40161;39.768;2.722;2023-04-28T15:57:12;101096.63;;;25.66;41.74
54248;BME280;40161;39.768;2.722;2023-04-28T15:59:37;101086.31;;;25.63;42.22
54248;BME280;40161;39.768;2.722;2023-04-28T16:02:03;101069.78;;;25.65;41.43
54248;BME280;40161;39.768;2.722;2023-04-28T16:04:29;101064.91;;;25.56;42.04
54248;BME280;40161;39.768;2.722;2023-04-28T16:06:54;101070.75;;;25.71;41.93
54248;BME280;40161;39.768;2.722;2023-04-28T16:09:22;101067.81;;;25.75;42.22
54248;BME280;40161;39.768;2.722;2023-04-28T16:11:47;101060.44;;;25.68;42.03
54248;BME280;40161;39.768;2.722;2023-04-28T16:14:13;101018.34;;;25.46;41.93
54248;BME280;40161;39.768;2.722;2023-04-28T16:16:39;101013.34;;;25.41;41.98
54248;BME280;40161;39.768;2.722;2023-04-28T16:19:05;101008.38;;;25.45;42.04
54248;BME280;40161;39.768;2.722;2023-04-28T16:21:30;100976.63;;;25.26;41.82
54248;BME280;40161;39.768;2.722;2023-04-28T16:23:57;101016.22;;;25.60;42.61
54248;BME280;40161;39.768;2.722;2023-04-28T16:26:23;100984.63;;;25.46;42.62
54248;BME280;40161;39.768;2.722;2023-04-28T16:28:48;100985.63;;;25.62;42.72
54248;BME280;40161;39.768;2.722;2023-04-28T16:31:14;100950.34;;;25.51;43.04
54248;BME280;40161;39.768;2.722;2023-04-28T16:33:40;100956.91;;;25.57;41.97
54248;BME280;40161;39.768;2.722;2023-04-28T16:36:06;100942.09;;;25.57;42.83
54248;BME280;40161;39.768;2.722;2023-04-28T16:38:33;100924.28;;;25.51;42.56
54248;BME280;40161;39.768;2.722;2023-04-28T16:40:58;100920.38;;;25.57;41.67
54248;BME280;40161;39.768;2.722;2023-04-28T16:43:23;100941.16;;;25.69;41.21
54248;BME280;40161;39.768;2.722;2023-04-28T16:45:49;100971.03;;;25.85;40.94
54248;BME280;40161;39.768;2.722;2023-04-28T16:48:15;100956.94;;;25.76;41.50
54248;BME280;40161;39.768;2.722;2023-04-28T16:50:42;101004.19;;;26.09;41.71
54248;BME280;40161;39.768;2.722;2023-04-28T16:53:09;100994.78;;;25.44;48.63
54248;BME280;40161;39.768;2.722;2023-04-28T16:55:35;101022.56;;;24.89;50.47
54248;BME280;40161;39.768;2.722;2023-04-28T16:58:01;101011.22;;;24.48;53.03
54248;BME280;40161;39.768;2.722;2023-04-28T17:00:27;100990.03;;;24.12;54.76
54248;BME280;40161;39.768;2.722;2023-04-28T17:02:53;100961.63;;;23.76;54.51
54248;BME280;40161;39.768;2.722;2023-04-28T17:05:19;101035.19;;;24.14;54.08
54248;BME280;40161;39.768;2.722;2023-04-28T17:07:45;101032.75;;;23.91;53.76
54248;BME280;40161;39.768;2.722;2023-04-28T17:10:11;101079.94;;;24.05;54.19
54248;BME280;40161;39.768;2.722;2023-04-28T17:12:36;101106.09;;;23.77;54.25
54248;BME280;40161;39.768;2.722;2023-04-28T17:15:05;101125.31;;;23.49;56.38
54248;BME280;40161;39.768;2.722;2023-04-28T17:17:31;101145.69;;;23.50;56.31
54248;BME280;40161;39.768;2.722;2023-04-28T17:19:58;101139.88;;;23.02;53.57
54248;BME280;40161;39.768;2.722;2023-04-28T17:22:27;101126.88;;;22.95;54.43
54248;BME280;40161;39.768;2.722;2023-04-28T17:24:54;101123.16;;;22.98;54.93
54248;BME280;40161;39.768;2.722;2023-04-28T17:27:20;101154.38;;;23.26;55.47
54248;BME280;40161;39.768;2.722;2023-04-28T17:29:46;101165.94;;;23.28;56.33
54248;BME280;40161;39.768;2.722;2023-04-28T17:32:11;101147.22;;;23.25;58.77
54248;BME280;40161;39.768;2.722;2023-04-28T17:34:37;101158.41;;;23.25;60.45
54248;BME280;40161;39.768;2.722;2023-04-28T17:37:02;101147.72;;;23.07;62.94
54248;BME280;40161;39.768;2.722;2023-04-28T17:39:28;101182.53;;;23.06;64.10
54248;BME280;40161;39.768;2.722;2023-04-28T17:41:53;101188.66;;;23.01;64.43
54248;BME280;40161;39.768;2.722;2023-04-28T17:44:21;101171.00;;;22.88;64.81
54248;BME280;40161;39.768;2.722;2023-04-28T17:46:47;101176.25;;;22.86;64.43
54248;BME280;40161;39.768;2.722;2023-04-28T17:49:12;101212.72;;;22.98;64.82
54248;BME280;40161;39.768;2.722;2023-04-28T17:51:38;101184.88;;;22.91;64.29
54248;BME280;40161;39.768;2.722;2023-04-28T17:54:03;101170.31;;;22.84;64.58
54248;BME280;40161;39.768;2.722;2023-04-28T17:56:37;101200.22;;;23.03;64.88
54248;BME280;40161;39.768;2.722;2023-04-28T17:59:04;101192.94;;;22.89;64.50
54248;BME280;40161;39.768;2.722;2023-04-28T18:01:31;101168.28;;;22.84;64.98
54248;BME280;40161;39.768;2.722;2023-04-28T18:03:58;101163.16;;;22.83;64.35
54248;BME280;40161;39.768;2.722;2023-04-28T18:06:23;101161.75;;;22.74;64.78
54248;BME280;40161;39.768;2.722;2023-04-28T18:08:49;101165.38;;;22.59;64.72
54248;BME280;40161;39.768;2.722;2023-04-28T18:11:14;101133.13;;;22.54;64.60
54248;BME280;40161;39.768;2.722;2023-04-28T18:13:41;101136.34;;;22.69;64.00
54248;BME280;40161;39.768;2.722;2023-04-28T18:16:06;101136.50;;;22.78;63.76
54248;BME280;40161;39.768;2.722;2023-04-28T18:18:37;101109.59;;;22.68;62.55
54248;BME280;40161;39.768;2.722;2023-04-28T18:21:03;101115.59;;;22.83;62.58
54248;BME280;40161;39.768;2.722;2023-04-28T18:23:29;101076.03;;;22.68;62.07
54248;BME280;40161;39.768;2.722;2023-04-28T18:25:54;101082.41;;;22.68;61.66
54248;BME280;40161;39.768;2.722;2023-04-28T18:28:20;101075.22;;;22.67;61.71
54248;BME280;40161;39.768;2.722;2023-04-28T18:30:46;101084.66;;;22.73;62.18
54248;BME280;40161;39.768;2.722;2023-04-28T18:33:11;101081.00;;;22.60;62.93
54248;BME280;40161;39.768;2.722;2023-04-28T18:35:37;101068.72;;;22.58;62.85
54248;BME280;40161;39.768;2.722;2023-04-28T18:38:03;101085.59;;;22.54;63.53
54248;BME280;40161;39.768;2.722;2023-04-28T18:40:33;101101.31;;;22.48;64.12
54248;BME280;40161;39.768;2.722;2023-04-28T18:43:00;101109.91;;;22.41;64.59
54248;BME280;40161;39.768;2.722;2023-04-28T18:45:32;101115.50;;;22.41;64.52
54248;BME280;40161;39.768;2.722;2023-04-28T18:48:02;101110.50;;;22.32;65.19
54248;BME280;40161;39.768;2.722;2023-04-28T18:50:28;101123.34;;;22.30;66.50
54248;BME280;40161;39.768;2.722;2023-04-28T18:52:54;101107.53;;;22.07;66.41
54248;BME280;40161;39.768;2.722;2023-04-28T18:55:20;101103.66;;;22.00;66.88
54248;BME280;40161;39.768;2.722;2023-04-28T18:57:45;101126.38;;;22.02;66.94
54248;BME280;40161;39.768;2.722;2023-04-28T19:00:13;101109.06;;;21.91;67.32
54248;BME280;40161;39.768;2.722;2023-04-28T19:02:38;101132.84;;;21.99;67.13
54248;BME280;40161;39.768;2.722;2023-04-28T19:05:05;101138.75;;;22.01;67.34
54248;BME280;40161;39.768;2.722;2023-04-28T19:07:31;101125.41;;;21.93;68.54
54248;BME280;40161;39.768;2.722;2023-04-28T19:09:57;101117.28;;;21.82;68.71
54248;BME280;40161;39.768;2.722;2023-04-28T19:12:22;101137.78;;;21.92;69.66
54248;BME280;40161;39.768;2.722;2023-04-28T19:14:50;101131.81;;;21.73;70.61
54248;BME280;40161;39.768;2.722;2023-04-28T19:17:16;101130.44;;;21.65;72.88
54248;BME280;40161;39.768;2.722;2023-04-28T19:19:42;101170.78;;;21.80;73.43
54248;BME280;40161;39.768;2.722;2023-04-28T19:24:59;101154.41;;;21.63;75.91
54248;BME280;40161;39.768;2.722;2023-04-28T19:27:30;101149.19;;;21.65;75.66
54248;BME280;40161;39.768;2.722;2023-04-28T19:30:00;101152.06;;;21.61;76.27
54248;BME280;40161;39.768;2.722;2023-04-28T19:32:26;101162.25;;;21.68;75.46
54248;BME280;40161;39.768;2.722;2023-04-28T19:34:52;101176.47;;;21.57;76.88
54248;BME280;40161;39.768;2.722;2023-04-28T19:37:19;101106.97;;;21.03;78.19
54248;BME280;40161;39.768;2.722;2023-04-28T19:39:45;101170.94;;;21.33;77.96
54248;BME280;40161;39.768;2.722;2023-04-28T19:42:11;101171.94;;;21.23;78.39
54248;BME280;40161;39.768;2.722;2023-04-28T19:44:36;101177.53;;;21.23;79.04
54248;BME280;40161;39.768;2.722;2023-04-28T19:47:02;101156.84;;;21.21;79.00
54248;BME280;40161;39.768;2.722;2023-04-28T19:49:28;101143.16;;;21.26;79.06
54248;BME280;40161;39.768;2.722;2023-04-28T19:51:54;101099.81;;;21.02;79.15
54248;BME280;40161;39.768;2.722;2023-04-28T19:54:19;101078.84;;;20.74;79.73
54248;BME280;40161;39.768;2.722;2023-04-28T19:56:45;101149.47;;;21.10;80.83
54248;BME280;40161;39.768;2.722;2023-04-28T19:59:11;101144.16;;;20.96;81.92
54248;BME280;40161;39.768;2.722;2023-04-28T20:01:36;101127.59;;;20.66;81.08
54248;BME280;40161;39.768;2.722;2023-04-28T20:04:07;101160.00;;;20.79;79.05
54248;BME280;40161;39.768;2.722;2023-04-28T20:06:33;101144.31;;;20.66;79.02
54248;BME280;40161;39.768;2.722;2023-04-28T20:09:00;101150.50;;;20.77;79.63
54248;BME280;40161;39.768;2.722;2023-04-28T20:11:26;101159.38;;;20.92;78.61
54248;BME280;40161;39.768;2.722;2023-04-28T20:13:51;101160.53;;;20.94;79.60
54248;BME280;40161;39.768;2.722;2023-04-28T20:16:17;101142.25;;;20.70;80.28
54248;BME280;40161;39.768;2.722;2023-04-28T20:18:45;101162.63;;;20.67;80.34
54248;BME280;40161;39.768;2.722;2023-04-28T20:21:11;101147.19;;;20.62;79.62
54248;BME280;40161;39.768;2.722;2023-04-28T20:23:36;101151.66;;;20.56;79.35
54248;BME280;40161;39.768;2.722;2023-04-28T20:26:02;101162.31;;;20.61;79.55
54248;BME280;40161;39.768;2.722;2023-04-28T20:28:30;101163.91;;;20.62;79.48
54248;BME280;40161;39.768;2.722;2023-04-28T20:30:55;101180.13;;;20.67;79.42
54248;BME280;40161;39.768;2.722;2023-04-28T20:33:21;101171.13;;;20.59;80.73
54248;BME280;40161;39.768;2.722;2023-04-28T20:35:46;101141.69;;;20.31;80.25
54248;BME280;40161;39.768;2.722;2023-04-28T20:38:12;101156.16;;;20.46;80.37
54248;BME280;40161;39.768;2.722;2023-04-28T20:40:38;101155.44;;;20.42;80.04
54248;BME280;40161;39.768;2.722;2023-04-28T20:43:05;101175.19;;;20.55;78.97
54248;BME280;40161;39.768;2.722;2023-04-28T20:45:30;101178.63;;;20.62;78.25
54248;BME280;40161;39.768;2.722;2023-04-28T20:47:56;101163.28;;;20.51;77.89
54248;BME280;40161;39.768;2.722;2023-04-28T20:50:22;101188.09;;;20.69;77.87
54248;BME280;40161;39.768;2.722;2023-04-28T20:52:48;101145.97;;;20.36;79.08
54248;BME280;40161;39.768;2.722;2023-04-28T20:55:13;101189.13;;;20.55;80.58
54248;BME280;40161;39.768;2.722;2023-04-28T20:57:39;101197.50;;;20.55;80.79
54248;BME280;40161;39.768;2.722;2023-04-28T21:00:06;101186.69;;;20.57;80.83
54248;BME280;40161;39.768;2.722;2023-04-28T21:02:31;101196.66;;;20.58;81.49
54248;BME280;40161;39.768;2.722;2023-04-28T21:04:57;101192.25;;;20.57;80.79
54248;BME280;40161;39.768;2.722;2023-04-28T21:49:59;101192.41;;;19.92;85.07
54248;BME280;40161;39.768;2.722;2023-04-28T22:31:31;101123.56;;;19.35;89.89
54248;BME280;40161;39.768;2.722;2023-04-28T22:33:57;101158.19;;;19.64;88.71
54248;BME280;40161;39.768;2.722;2023-04-28T22:36:22;101116.31;;;19.41;88.91
